Logo AVAMET
Benvolgut visitant, si us plau, ingressa Recuperar contrasenya
AVAMET paisatges

Xixona castell

Dades diàries. Acumulats / Últims 30 dies disponibles

Data Temperatura (°C) Humitat rel. (%) Pressió rel. (hPa) Vent (km/h) Precipitació
Mínima Mitjana Màxima Amplitud
tèrmica
Mínima Mitjana Màxima Mínima Mitjana Màxima Predom. Mitjana Ràfega
màxima
Total
(mm)
Índex-n
Mínima Mitjana Màxima Mínima Mitjana Màxima n
0 a 1
P0 max
mm 5'
Dades mensuals acumulades fins l'últim dia disponible
09/2020 15,7 18,1 20,7 21,3 22,5 26,0 29,1 13,4 25 62 78 1.010 1.015 1.024   8,7 82,1 11,4
Dades anuals acumulades fins l'últim dia disponible
2020 1,6 14,0 23,7 17,6 7,2 21,7 33,9 32,3 0 59 100 0 994 1.035   8,1 123,9 216,8
Últims 30 dies disponibles
25-09-2020     19,6     22,5 22,5 25 47 74 1.012 1.014 1.018 SE 29,0 82,1 0,19 0,80
24-09-2020 20,7     24,1     29,1 8,4 33 48 60 1.011 1.012 1.013 NW 20,9 64,4 0,2
23-09-2020 20,7     23,6     28,1 7,4 34 51 69 1.010 1.011 1.012 NW 6,8 33,8 0,0
22-09-2020 18,4     21,8     26,2 7,8 38 56 70 1.011 1.013 1.015 NW 5,8 29,0 0,0
21-09-2020 18,4     22,1     27,7 9,3 33 56 75 1.013 1.015 1.016 NW 10,6 37,0 0,0
20-09-2020 18,7     21,5     26,4 7,7 39 59 72 1.014 1.015 1.016 NW 15,1 48,3 0,0
19-09-2020 18,2     21,8     26,6 8,4 37 60 78 1.013 1.015 1.017 NW 10,0 46,7 0,0
18-09-2020     19,8     24,4 24,4 44 69 78 1.013 1.015 1.018 NW 8,5 78,9 6,6 0,27 0,60
17-09-2020 20,2     22,7     26,6 6,4 46 59 77 1.013 1.015 1.016 NW 3,2 17,7 0,0
16-09-2020 18,8     23,3     28,3 9,5 39 55 74 1.015 1.017 1.018 NW 4,2 20,9 0,0
07-09-2020 17,4     19,0     22,8 5,4 62 75 78 1.013 1.014 1.015 NW 2,9 12,9 0,0
06-09-2020 16,7     21,2     26,2 9,5 54 70 78 1.014 1.016 1.018 NW 5,0 25,7 0,0
05-09-2020 16,6     20,8     26,1 9,5 58 71 78 1.017 1.019 1.021 NW 5,3 24,1 0,0
04-09-2020 16,8     21,1     26,4 9,6 49 66 77 1.020 1.022 1.024 NW 6,9 25,7 0,0
03-09-2020 16,9     20,7     24,9 8,0 60 72 78 1.018 1.020 1.023 NW 4,5 32,2 0,0
02-09-2020 17,4     20,1     25,6 8,2 47 70 78 1.012 1.015 1.019 NW 4,2 35,4 4,6 0,18 1,10
01-09-2020 15,7     19,5     24,1 8,4 58 71 78 1.010 1.013 1.017 NW 4,2 24,1 0,0
31-08-2020 16,2     19,7     24,3 8,1 34 57 77 1.015 1.017 1.018 NO 5,5 35,4 0,0
30-08-2020 15,1     19,4     24,3 9,2 33 62 76 1.007 1.011 1.016 NW 5,5 30,6 0,0
29-08-2020 17,2     23,2     29,2 12,0 24 60 78 999 1.001 1.006 NW 13,4 67,6 12,0
28-08-2020 23,7     26,7     30,2 6,5 25 49 75 1.001 1.006 1.012 NW 5,8 27,4 0,0
27-08-2020     27,3     32,1 32,1 28 49 69 1.012 1.014 1.017 NW 6,1 25,7 0,6
26-08-2020 23,0     27,8     32,7 9,7 NW 6,0 25,7 0,0
25-08-2020 20,0     25,4     30,3 10,3 NW 5,6 24,1 0,0
24-08-2020 20,4     23,9     28,0 7,6 NW 3,9 24,1 0,0
23-08-2020 20,3     24,4     28,2 7,9 NW 5,0 25,7 0,0
22-08-2020 22,8     27,8     31,7 8,9 NW 6,1 30,6 0,0
21-08-2020 21,2     26,1     30,5 9,3 NW 4,5 24,1 0,0
20-08-2020 23,1     26,4     30,1 7,0 NW 5,1 22,5 0,0
19-08-2020 21,4     26,6     31,3 9,9 NW 5,1 24,1 0,0
Últims 13 mesos disponibles
08/2020 15,1 20,5 23,7 24,8 24,3 29,2 32,7 17,6 49 55 62 1.001 1.010 1.017 NW 6,2 67,6 12,8
07/2020 17,8 20,6 23,4 24,9 25,9 29,5 33,9 16,1 36 55 72 1.010 1.014 1.019 NW 5,9 46,7 1,8
06/2020 13,2 17,4 22,1 21,7 19,2 25,9 31,8 18,6 35 55 74 1.004 1.013 1.020 NW 7,7 74,0 9,2
05/2020 9,4 15,2 20,3 18,8 16,4 22,6 27,9 18,5 34 57 73 1.004 1.012 1.020 NW 8,4 88,5 22,4
04/2020 7,1 10,6 15,2 13,3 12,9 17,6 22,5 15,4 39 65 76 1.005 1.015 1.025 NW 7,1 86,9 41,0
03/2020 5,3 9,3 16,1 12,3 7,2 16,0 24,7 19,4 41 62 82 1.008 1.016 1.024 NW 11,7 107,8 61,4
02/2020 5,4 10,9 16,2 13,9 11,9 17,8 23,9 18,5 32 57 77 1.013 1.024 1.032 NW 6,9 93,3 1,0
01/2020 1,6 6,7 12,3 9,8 8,2 13,6 17,6 16,0 47 66 81 1.014 1.024 1.032 NW 10,5 123,9 55,8
12/2019 5,8 9,3 13,9 12,4 10,6 15,6 22,9 17,1 36 62 77 1.005 1.018 1.032 NW 13,0 133,6 32,0
11/2019 4,5 10,1 18,2 12,6 10,2 15,7 22,9 18,4 48 60 79 999 1.010 1.018 NW 23,8 112,7 32,8
10/2019 9,8 15,1 19,6 18,1 13,2 22,0 30,1 20,3 41 60 75 1.008 1.015 1.021 NW 7,7 93,3 43,2
09/2019 12,4 18,0 20,9 21,2 19,5 25,1 30,4 18,0 46 66 75 1.009 1.016 1.021 NW 7,5 83,7 38,2
08/2019 17,6 20,9 25,9 24,7 25,1 29,3 36,2 18,6 31 59 72 1.009 1.014 1.018 SSE 6,4 54,7 17,4
Tots els anys disponibles
2019 1,4 13,2 25,9 16,7 8,8 20,7 36,6 35,2 23 58 84 996 1.016 1.032 NW 10,3 133,6 280,0
2018 1,1 13,3 24,8 16,8 5,9 20,9 33,4 32,3 30 64 82 998 1.016 1.026 NW 10,1 119,1 312,4
2017 -0,4 13,1 25,9 16,7 4,3 20,9 34,2 34,6 9,0 123,9 219,0
2016 2,6 13,2 28,0 16,5 8,9 20,5 37,3 34,7 9,7 132,0 272,6
Temperatura (°C)
Humitat relativa (%)
Velocitat del vent i ràfega màxima (km/h)
Direcció del vent (°)
Pressió (hPa)
Precipitació (mm)
Nota sobre les dades: s'avisa a l'usuari de la provisionalitat i no oficialitat d'aquestes dades
Logo AVAMET blanc
Web allotjada a Sollutia
Llicència de Creative CommonsLa web d'AVAMET i els seus continguts estan subjectes a una llicència de
Reconeixement - No Comercial - Compartir igual
Últimes estacions: Monteagudo del Castillo - El Portero (Limítrofe-Terol/Soci), Llocnou d'en Fenollet - El Molló (Soci), Castelló de la Plana - Grup Sant Agustí (Soci), Llíria - Urb. San Gerardo (Soci), Xàtiva - Ausiàs March (Soci), Gandia - Parpalló/Borrell (AVAMET), Olocau del Rei - La Magdalena (Electra/Soci), Ademuz - IES Ademuz (Soci), La Jana (Ajuntament Soci), - - -